Time;durP1;ratioP1;P1;durP2;ratioP2;P2;SDS_P1;SDS_P2;PMS_P1;PMS_P2;Temp;Humidity;BMP_temperature;BMP_pressure;BME280_temperature;BME280_humidity;BME280_pressure;Samples;Min_cycle;Max_cycle;Signal;HPM_P1;HPM_P2
2023/05/02 00:00:16;;;;;;;6.93;4.82;;;14.10;99.90;;;;;;5070876;28;20037;-74
2023/05/02 00:02:42;;;;;;;10.23;5.53;;;14.20;99.90;;;;;;5071490;28;20033;-75
2023/05/02 00:05:08;;;;;;;6.93;5.22;;;14.20;99.90;;;;;;5038100;28;20398;-75
2023/05/02 00:07:35;;;;;;;8.23;5.35;;;14.30;99.90;;;;;;5071421;28;20044;-74
2023/05/02 00:10:01;;;;;;;9.48;4.97;;;14.40;99.90;;;;;;5054638;28;20040;-74
2023/05/02 00:12:27;;;;;;;10.75;5.72;;;14.50;99.90;;;;;;5055494;28;20080;-72
2023/05/02 00:14:53;;;;;;;8.75;5.32;;;14.50;99.90;;;;;;5071281;28;20032;-76
2023/05/02 00:17:19;;;;;;;10.45;5.22;;;14.60;99.90;;;;;;5070890;28;20033;-75
2023/05/02 00:19:46;;;;;;;6.57;4.93;;;14.60;99.90;;;;;;5037602;28;20051;-75
2023/05/02 00:22:12;;;;;;;9.43;4.95;;;14.70;99.90;;;;;;5037225;28;20044;-76
2023/05/02 00:24:38;;;;;;;9.15;5.50;;;14.70;99.90;;;;;;5054593;28;20029;-74
2023/05/02 00:27:05;;;;;;;6.95;5.05;;;14.70;99.90;;;;;;5053485;28;20048;-75
2023/05/02 00:29:31;;;;;;;9.65;5.50;;;14.70;99.90;;;;;;5071024;28;20394;-75
2023/05/02 00:31:57;;;;;;;10.85;5.60;;;14.60;99.90;;;;;;5055034;28;20041;-74
2023/05/02 00:34:28;;;;;;;10.20;5.80;;;14.50;99.90;;;;;;5070986;28;20523;-74
2023/05/02 00:36:54;;;;;;;9.07;5.07;;;14.50;99.90;;;;;;5070634;28;20040;-75
2023/05/02 00:39:20;;;;;;;8.70;5.53;;;14.50;99.90;;;;;;5055505;28;20036;-74
2023/05/02 00:41:46;;;;;;;13.05;5.45;;;14.50;99.90;;;;;;5055032;28;20036;-74
2023/05/02 00:44:12;;;;;;;8.95;5.57;;;14.50;99.90;;;;;;5055121;28;20020;-75
2023/05/02 00:46:38;;;;;;;9.02;5.45;;;14.30;99.90;;;;;;5053666;28;20040;-73
2023/05/02 00:49:04;;;;;;;7.13;5.15;;;14.30;99.90;;;;;;5053607;28;20359;-74
2023/05/02 00:51:32;;;;;;;10.13;5.32;;;14.30;99.90;;;;;;5055109;28;20033;-75
2023/05/02 00:54:00;;;;;;;10.88;5.45;;;14.40;99.90;;;;;;5054041;28;20033;-75
2023/05/02 00:56:26;;;;;;;7.20;5.07;;;14.40;99.90;;;;;;5053498;28;20029;-74
2023/05/02 00:58:52;;;;;;;9.15;4.93;;;14.40;99.90;;;;;;5070287;28;20017;-75
2023/05/02 01:01:23;;;;;;;6.40;5.43;;;14.40;99.90;;;;;;5054643;28;20029;-75
2023/05/02 01:04:20;;;;;;;9.18;5.15;;;14.50;99.90;;;;;;5070380;28;20438;-75
2023/05/02 01:07:15;;;;;;;8.43;5.57;;;14.50;99.90;;;;;;5070260;28;20393;-75
2023/05/02 01:09:52;;;;;;;9.30;5.32;;;14.50;99.90;;;;;;5054432;28;20051;-74
2023/05/02 01:12:37;;;;;;;6.70;5.10;;;14.40;99.90;;;;;;5069952;28;20041;-74
2023/05/02 01:15:05;;;;;;;9.52;5.32;;;14.40;99.90;;;;;;5069744;28;20025;-72
2023/05/02 01:17:31;;;;;;;8.48;5.05;;;14.40;99.90;;;;;;5053325;28;20469;-74
2023/05/02 01:19:58;;;;;;;8.10;5.00;;;14.40;99.90;;;;;;5053648;28;20025;-74
2023/05/02 01:22:26;;;;;;;11.75;5.57;;;14.40;99.90;;;;;;5053286;28;20478;-74
2023/05/02 01:25:12;;;;;;;7.68;4.80;;;14.30;99.90;;;;;;5069786;28;20032;-74
2023/05/02 01:27:50;;;;;;;9.73;4.80;;;14.20;99.90;;;;;;5069735;28;20029;-75
2023/05/02 01:30:17;;;;;;;8.25;4.88;;;14.20;99.90;;;;;;5054084;28;20040;-74
2023/05/02 01:32:45;;;;;;;8.63;4.60;;;14.20;99.90;;;;;;5053007;28;20394;-74
2023/05/02 01:35:13;;;;;;;6.30;5.00;;;14.20;99.90;;;;;;5053107;28;20032;-74
2023/05/02 01:37:39;;;;;;;6.70;4.30;;;14.20;99.90;;;;;;5036000;28;20043;-74
2023/05/02 01:40:06;;;;;;;9.02;4.40;;;14.10;99.90;;;;;;5052249;28;20473;-73
2023/05/02 01:42:32;;;;;;;8.38;4.63;;;14.10;99.90;;;;;;5053098;28;20589;-74
2023/05/02 01:44:59;;;;;;;7.22;4.57;;;14.10;99.90;;;;;;5069644;28;20021;-75
2023/05/02 01:47:25;;;;;;;8.38;4.43;;;14.10;99.90;;;;;;5052413;28;20033;-75
2023/05/02 01:49:51;;;;;;;10.55;4.78;;;14.00;99.90;;;;;;5052645;28;20056;-74
2023/05/02 01:52:17;;;;;;;7.45;4.93;;;14.00;99.90;;;;;;5069433;28;20037;-74
2023/05/02 01:54:44;;;;;;;7.43;4.65;;;14.00;99.90;;;;;;5052418;28;20021;-75
2023/05/02 01:57:10;;;;;;;7.65;5.00;;;13.90;99.90;;;;;;5052647;28;20036;-74
2023/05/02 01:59:36;;;;;;;10.32;4.80;;;13.90;99.90;;;;;;5068754;28;20429;-75
2023/05/02 02:02:02;;;;;;;7.38;4.60;;;13.80;99.90;;;;;;5046911;28;20028;-74
2023/05/02 02:04:28;;;;;;;6.57;4.50;;;13.80;99.90;;;;;;5048220;28;20021;-73
2023/05/02 02:06:57;;;;;;;10.90;4.70;;;13.70;99.90;;;;;;5044568;28;20039;-75
2023/05/02 02:09:23;;;;;;;8.25;4.63;;;13.70;99.90;;;;;;5065994;28;20033;-75
2023/05/02 02:11:56;;;;;;;8.25;5.05;;;13.70;99.90;;;;;;5067070;28;20045;-75
2023/05/02 02:14:24;;;;;;;8.75;5.28;;;13.70;99.90;;;;;;5051140;28;20021;-73
2023/05/02 02:16:54;;;;;;;9.52;5.22;;;13.60;99.90;;;;;;5050352;28;20032;-74
2023/05/02 02:19:20;;;;;;;10.18;5.47;;;13.60;99.90;;;;;;5067452;28;20040;-75
2023/05/02 02:21:46;;;;;;;9.02;5.50;;;13.60;99.90;;;;;;5051025;28;20031;-74
2023/05/02 02:24:12;;;;;;;7.43;4.57;;;13.60;99.90;;;;;;5050807;28;20040;-74
2023/05/02 02:26:38;;;;;;;9.93;5.07;;;13.50;99.90;;;;;;5050997;28;20359;-74
2023/05/02 02:29:04;;;;;;;8.48;4.60;;;13.50;99.90;;;;;;5034049;28;20043;-75
2023/05/02 02:31:34;;;;;;;8.27;4.60;;;13.60;99.90;;;;;;5051176;28;20409;-74
2023/05/02 02:34:00;;;;;;;7.47;5.00;;;13.50;99.90;;;;;;5051839;28;20052;-74
2023/05/02 02:36:52;;;;;;;10.02;5.25;;;13.50;99.90;;;;;;5050197;28;20381;-75
2023/05/02 02:39:21;;;;;;;9.50;5.38;;;13.50;99.90;;;;;;5051363;28;20029;-75
2023/05/02 02:42:01;;;;;;;9.10;5.28;;;13.40;99.90;;;;;;5053079;28;20397;-74
2023/05/02 02:44:53;;;;;;;9.27;5.30;;;13.40;99.90;;;;;;5067573;28;20025;-75
2023/05/02 02:47:36;;;;;;;8.10;4.68;;;13.30;99.90;;;;;;5051346;28;20478;-75
2023/05/02 02:50:15;;;;;;;7.47;5.00;;;13.20;99.90;;;;;;5051572;28;20045;-74
2023/05/02 02:52:50;;;;;;;7.78;5.35;;;13.20;99.90;;;;;;5052488;28;20028;-75
2023/05/02 02:55:39;;;;;;;9.65;5.55;;;13.20;99.90;;;;;;5067950;28;20033;-74
2023/05/02 02:58:36;;;;;;;15.30;7.95;;;13.20;99.90;;;;;;5065544;28;20374;-74
2023/05/02 03:01:03;;;;;;;9.75;5.47;;;13.20;99.90;;;;;;5050514;28;20029;-74
2023/05/02 03:03:30;;;;;;;7.72;5.40;;;13.20;99.90;;;;;;5051372;28;20025;-74
2023/05/02 03:05:56;;;;;;;10.07;5.32;;;13.20;99.90;;;;;;5051272;28;20037;-75
2023/05/02 03:08:22;;;;;;;12.23;5.07;;;13.10;99.90;;;;;;5067986;28;20051;-73
2023/05/02 03:10:49;;;;;;;8.98;5.30;;;13.10;99.90;;;;;;5051292;28;20029;-74
2023/05/02 03:13:15;;;;;;;8.30;4.80;;;13.10;99.90;;;;;;5067940;28;20037;-74
2023/05/02 03:15:50;;;;;;;9.85;5.10;;;13.10;99.90;;;;;;5050997;28;20029;-75
2023/05/02 03:18:16;;;;;;;8.55;5.03;;;13.10;99.90;;;;;;5052499;28;20029;-74
2023/05/02 03:20:42;;;;;;;8.38;5.20;;;13.00;99.90;;;;;;5067551;28;20021;-75
2023/05/02 03:23:08;;;;;;;8.60;5.40;;;12.90;99.90;;;;;;5051427;28;20029;-74
2023/05/02 03:25:35;;;;;;;17.35;10.00;;;12.90;99.90;;;;;;5052365;28;20040;-74
2023/05/02 03:28:01;;;;;;;12.32;7.68;;;13.00;99.90;;;;;;5052306;28;20374;-75
2023/05/02 03:30:27;;;;;;;11.50;5.90;;;12.90;99.90;;;;;;5051774;28;20028;-74
2023/05/02 03:32:53;;;;;;;9.68;6.25;;;12.90;99.90;;;;;;5052197;28;20044;-75
2023/05/02 03:35:19;;;;;;;11.05;5.43;;;13.00;99.90;;;;;;5033829;28;20056;-75
2023/05/02 03:37:45;;;;;;;9.55;5.20;;;12.90;99.90;;;;;;5067488;28;20382;-74
2023/05/02 03:40:12;;;;;;;8.60;4.90;;;12.90;99.90;;;;;;5051142;28;20025;-74
2023/05/02 03:42:40;;;;;;;7.05;4.55;;;12.90;99.90;;;;;;5052246;28;20040;-75
2023/05/02 03:45:07;;;;;;;8.73;5.50;;;12.80;99.90;;;;;;5051606;28;20032;-74
2023/05/02 03:47:33;;;;;;;7.28;5.32;;;12.80;99.90;;;;;;5050932;28;20036;-75
2023/05/02 03:49:59;;;;;;;11.20;5.35;;;12.80;99.90;;;;;;5050570;28;20155;-74
2023/05/02 03:52:25;;;;;;;8.90;5.57;;;12.80;99.90;;;;;;5050937;28;20041;-74
2023/05/02 03:54:51;;;;;;;12.48;5.45;;;12.80;99.90;;;;;;5052174;28;20021;-75
2023/05/02 03:57:18;;;;;;;9.38;5.28;;;12.80;99.90;;;;;;5034189;28;20405;-75
2023/05/02 03:59:44;;;;;;;11.70;5.50;;;12.70;99.90;;;;;;5052054;28;20029;-75
2023/05/02 04:02:11;;;;;;;12.13;5.85;;;12.50;99.90;;;;;;5051573;28;20037;-75
2023/05/02 04:04:37;;;;;;;8.80;5.10;;;12.60;99.90;;;;;;5051789;28;20029;-74
2023/05/02 04:07:04;;;;;;;7.10;4.93;;;12.60;99.90;;;;;;5050836;28;20025;-74
2023/05/02 04:09:30;;;;;;;7.15;5.05;;;12.60;99.90;;;;;;5067337;28;20032;-74
2023/05/02 04:11:56;;;;;;;12.38;5.00;;;12.60;99.90;;;;;;5052061;28;20462;-74
2023/05/02 04:14:22;;;;;;;10.68;5.47;;;12.70;99.90;;;;;;5051914;28;20033;-74
2023/05/02 04:16:49;;;;;;;6.78;5.15;;;12.60;99.90;;;;;;5051448;28;20037;-75
2023/05/02 04:19:17;;;;;;;12.15;5.35;;;12.50;99.90;;;;;;5050519;28;20029;-74
2023/05/02 04:21:43;;;;;;;8.75;5.63;;;12.60;99.90;;;;;;5067194;28;20029;-74
2023/05/02 04:24:09;;;;;;;11.32;6.00;;;12.60;99.90;;;;;;5050641;28;20037;-74
2023/05/02 04:26:35;;;;;;;16.08;7.28;;;12.50;99.90;;;;;;5050249;28;20039;-75
2023/05/02 04:29:03;;;;;;;14.70;6.38;;;12.30;99.90;;;;;;5050551;28;20029;-74
2023/05/02 04:31:30;;;;;;;10.63;6.43;;;12.30;99.90;;;;;;5066524;28;20033;-74
2023/05/02 04:33:56;;;;;;;12.27;7.03;;;12.30;99.90;;;;;;5051421;28;20040;-75
2023/05/02 04:36:23;;;;;;;14.15;6.60;;;12.40;99.90;;;;;;5053890;28;20037;-74
2023/05/02 04:38:49;;;;;;;9.63;5.50;;;12.40;99.90;;;;;;5054113;28;20029;-75
2023/05/02 04:41:16;;;;;;;7.32;5.55;;;12.50;99.90;;;;;;5054124;28;20029;-74
2023/05/02 04:43:42;;;;;;;11.55;5.85;;;12.50;99.90;;;;;;5054099;28;20028;-74
2023/05/02 04:46:08;;;;;;;11.15;5.93;;;12.40;99.90;;;;;;5053503;28;20057;-75
2023/05/02 04:48:34;;;;;;;11.48;5.68;;;12.40;99.90;;;;;;5070120;28;20033;-74
2023/05/02 04:51:00;;;;;;;9.80;5.72;;;12.40;99.90;;;;;;5070606;28;20033;-75
2023/05/02 04:53:27;;;;;;;12.13;5.97;;;12.40;99.90;;;;;;5070508;28;20045;-74
2023/05/02 04:55:53;;;;;;;11.18;5.85;;;12.30;99.90;;;;;;5054002;28;20025;-74
2023/05/02 04:58:19;;;;;;;10.52;6.30;;;12.30;99.90;;;;;;5055015;28;20089;-74
2023/05/02 05:00:45;;;;;;;8.85;6.05;;;12.30;99.90;;;;;;5054541;28;20040;-73
2023/05/02 05:03:11;;;;;;;10.27;6.10;;;12.40;99.90;;;;;;5052951;28;20044;-74
2023/05/02 05:05:37;;;;;;;8.27;5.90;;;12.40;99.90;;;;;;5054975;28;20056;-75
2023/05/02 05:08:03;;;;;;;11.00;6.38;;;12.40;99.90;;;;;;5054801;28;20025;-73
2023/05/02 05:10:29;;;;;;;11.13;5.97;;;12.40;99.90;;;;;;5054804;28;20028;-74
2023/05/02 05:12:56;;;;;;;13.13;6.40;;;12.30;99.90;;;;;;5054661;28;20051;-75
2023/05/02 05:15:24;;;;;;;10.20;6.57;;;12.30;99.90;;;;;;5054273;28;20032;-74
2023/05/02 05:17:50;;;;;;;11.57;6.57;;;12.40;99.90;;;;;;5054521;28;20025;-74
2023/05/02 05:20:17;;;;;;;22.08;6.93;;;12.40;99.90;;;;;;5069968;28;20029;-73
2023/05/02 05:22:43;;;;;;;14.82;6.22;;;12.50;99.90;;;;;;5054609;28;20029;-76
2023/05/02 05:25:09;;;;;;;20.20;6.78;;;12.60;99.90;;;;;;5054453;28;20025;-75
2023/05/02 05:27:36;;;;;;;30.70;6.15;;;12.50;99.90;;;;;;5053390;28;20025;-74
2023/05/02 05:30:03;;;;;;;18.05;6.18;;;12.60;99.90;;;;;;5052862;28;20021;-74
2023/05/02 05:32:29;;;;;;;11.30;6.53;;;12.60;99.90;;;;;;5054037;28;20048;-74
2023/05/02 05:34:55;;;;;;;18.70;6.30;;;12.70;99.90;;;;;;5069764;28;20485;-75
2023/05/02 05:37:21;;;;;;;96.32;8.32;;;12.80;99.90;;;;;;5054157;28;20040;-74
2023/05/02 05:39:47;;;;;;;19.50;6.20;;;12.80;99.90;;;;;;5054301;28;20493;-74
2023/05/02 05:42:14;;;;;;;12.55;6.35;;;12.80;99.90;;;;;;5035763;28;20040;-74
2023/05/02 05:44:40;;;;;;;25.48;6.65;;;12.80;99.90;;;;;;5058487;28;20482;-74
2023/05/02 05:47:06;;;;;;;10.05;6.82;;;12.90;99.90;;;;;;5067831;28;20025;-73
2023/05/02 05:49:35;;;;;;;11.30;6.72;;;12.90;99.90;;;;;;5069278;28;20498;-76
2023/05/02 05:52:01;;;;;;;9.07;6.22;;;12.90;99.90;;;;;;5052258;28;20153;-75
2023/05/02 05:54:27;;;;;;;10.38;6.47;;;13.10;99.90;;;;;;5069474;28;20398;-75
2023/05/02 05:56:53;;;;;;;8.75;6.47;;;13.30;99.90;;;;;;5053812;28;20481;-74
2023/05/02 05:59:19;;;;;;;7.75;5.82;;;13.40;99.90;;;;;;5068980;28;20029;-74
2023/05/02 06:01:45;;;;;;;9.63;6.20;;;13.60;99.90;;;;;;5068821;28;20470;-73
2023/05/02 06:04:11;;;;;;;12.02;7.22;;;13.80;99.90;;;;;;5052483;28;20036;-74
2023/05/02 06:06:37;;;;;;;11.15;7.07;;;14.00;99.90;;;;;;5069433;28;20378;-74
2023/05/02 06:09:03;;;;;;;9.13;7.05;;;14.20;99.90;;;;;;5053629;28;20033;-74
2023/05/02 06:11:30;;;;;;;12.07;6.97;;;14.40;99.90;;;;;;5069079;28;20462;-73
2023/05/02 06:13:56;;;;;;;8.68;6.70;;;14.50;99.90;;;;;;5053315;28;20036;-73
2023/05/02 06:16:22;;;;;;;11.57;6.93;;;14.20;99.90;;;;;;5068469;28;20052;-73
2023/05/02 06:18:49;;;;;;;11.00;7.10;;;13.90;99.90;;;;;;5068995;28;20033;-74
2023/05/02 06:21:15;;;;;;;11.38;7.68;;;13.80;99.90;;;;;;5068905;28;20029;-74
2023/05/02 06:23:41;;;;;;;14.88;7.78;;;13.90;99.90;;;;;;5053425;28;20028;-74
2023/05/02 06:26:08;;;;;;;12.05;6.85;;;13.90;99.90;;;;;;5051523;28;20033;-74
2023/05/02 06:28:35;;;;;;;16.00;6.88;;;14.00;99.90;;;;;;5051694;28;20043;-75
2023/05/02 06:31:04;;;;;;;12.27;7.30;;;14.20;99.90;;;;;;5051643;28;20025;-75
2023/05/02 06:33:31;;;;;;;9.55;7.38;;;14.30;99.90;;;;;;5052049;28;20037;-75
2023/05/02 06:35:57;;;;;;;11.80;6.38;;;14.50;99.90;;;;;;5067548;28;20028;-73
2023/05/02 06:38:24;;;;;;;10.60;6.78;;;14.50;99.90;;;;;;5053129;28;20033;-74
2023/05/02 06:40:50;;;;;;;12.70;7.70;;;14.60;99.90;;;;;;5052031;28;20028;-75
2023/05/02 06:43:16;;;;;;;10.95;8.05;;;14.60;99.90;;;;;;5051535;28;20036;-74
2023/05/02 06:45:42;;;;;;;8.00;7.22;;;14.60;99.90;;;;;;5051404;28;20033;-75
2023/05/02 06:48:09;;;;;;;14.40;6.88;;;14.70;99.90;;;;;;5068110;28;20037;-75
2023/05/02 06:50:35;;;;;;;11.98;7.10;;;14.80;99.90;;;;;;5053073;28;20032;-74
2023/05/02 06:53:01;;;;;;;7.40;6.63;;;14.70;99.90;;;;;;5052833;28;20041;-74
2023/05/02 06:55:27;;;;;;;12.23;7.07;;;14.90;99.90;;;;;;5051690;28;20036;-74
2023/05/02 06:57:53;;;;;;;10.70;7.30;;;15.00;99.90;;;;;;5051161;28;20032;-74
2023/05/02 07:00:19;;;;;;;10.98;6.75;;;15.00;99.90;;;;;;5051218;28;20037;-75
2023/05/02 07:02:46;;;;;;;9.77;6.65;;;15.20;99.90;;;;;;5052762;28;20382;-75
2023/05/02 07:05:14;;;;;;;10.25;6.82;;;15.30;99.90;;;;;;5034532;28;20037;-77
2023/05/02 07:07:41;;;;;;;12.80;6.47;;;15.30;99.90;;;;;;5051450;28;20029;-74
2023/05/02 07:10:08;;;;;;;10.65;7.00;;;15.20;99.90;;;;;;5052606;28;20026;-74
2023/05/02 07:12:34;;;;;;;12.50;6.80;;;15.40;99.90;;;;;;5050438;28;20045;-75
2023/05/02 07:15:00;;;;;;;13.40;7.18;;;15.70;99.90;;;;;;5051363;28;20465;-75
2023/05/02 07:17:26;;;;;;;9.65;7.03;;;16.10;99.90;;;;;;5050995;28;20037;-74
2023/05/02 07:19:52;;;;;;;10.45;7.40;;;16.50;99.90;;;;;;5051271;28;20489;-74
2023/05/02 07:22:20;;;;;;;12.52;7.25;;;16.90;99.90;;;;;;5068008;28;20033;-74
2023/05/02 07:24:46;;;;;;;11.00;7.47;;;16.80;99.90;;;;;;5067803;28;20036;-74
2023/05/02 07:27:12;;;;;;;11.93;7.80;;;16.90;99.90;;;;;;5067617;28;20425;-74
2023/05/02 07:29:38;;;;;;;10.68;7.32;;;16.90;99.90;;;;;;5051267;28;20040;-74
2023/05/02 07:32:05;;;;;;;9.40;7.32;;;17.00;99.90;;;;;;5067181;28;20025;-75
2023/05/02 07:34:31;;;;;;;10.93;7.53;;;17.20;99.90;;;;;;5067753;28;20416;-75
2023/05/02 07:36:57;;;;;;;11.35;7.47;;;17.30;99.90;;;;;;5050892;28;20036;-74
2023/05/02 07:39:24;;;;;;;10.00;8.13;;;17.30;99.90;;;;;;5051165;28;20385;-74
2023/05/02 07:41:51;;;;;;;12.10;7.20;;;17.40;99.90;;;;;;5051932;28;20033;-75
2023/05/02 07:44:18;;;;;;;11.73;7.30;;;17.40;99.90;;;;;;5051032;28;20028;-75
2023/05/02 07:46:44;;;;;;;8.52;7.35;;;17.60;99.90;;;;;;5050547;28;20033;-75
2023/05/02 07:49:10;;;;;;;10.50;6.88;;;17.60;99.90;;;;;;5050429;28;20383;-74
2023/05/02 07:51:38;;;;;;;10.48;6.53;;;17.50;99.90;;;;;;5067553;28;20025;-74
2023/05/02 07:54:15;;;;;;;8.02;6.75;;;17.50;99.90;;;;;;5067226;28;20033;-75
2023/05/02 07:56:42;;;;;;;10.70;6.43;;;17.60;99.90;;;;;;5067289;28;20048;-75
2023/05/02 07:59:08;;;;;;;8.38;6.63;;;17.80;99.90;;;;;;5067728;28;20021;-75
2023/05/02 08:01:34;;;;;;;8.57;6.80;;;18.00;99.90;;;;;;5066987;28;20061;-74
2023/05/02 08:04:01;;;;;;;7.93;5.50;;;17.90;99.90;;;;;;5067010;28;20478;-75
2023/05/02 08:06:27;;;;;;;7.72;6.15;;;18.00;99.90;;;;;;5050496;28;20041;-74
2023/05/02 08:08:53;;;;;;;11.50;6.13;;;18.10;99.90;;;;;;5052890;28;20033;-74
2023/05/02 08:11:24;;;;;;;7.78;6.57;;;18.30;99.90;;;;;;5071242;28;20033;-75
2023/05/02 08:13:53;;;;;;;8.55;6.72;;;18.50;99.90;;;;;;5054535;28;20056;-75
2023/05/02 08:16:19;;;;;;;10.25;6.65;;;18.70;99.90;;;;;;5055215;28;20048;-74
2023/05/02 08:18:45;;;;;;;8.32;5.90;;;18.70;99.90;;;;;;5071216;28;20024;-75
2023/05/02 08:21:11;;;;;;;7.88;5.53;;;18.50;99.90;;;;;;5071464;28;20036;-75
2023/05/02 08:23:39;;;;;;;7.45;6.10;;;18.50;99.90;;;;;;5071300;28;20036;-76
2023/05/02 08:26:05;;;;;;;7.15;5.25;;;18.30;99.90;;;;;;5053539;28;20394;-74
2023/05/02 08:28:31;;;;;;;6.65;5.28;;;18.30;99.90;;;;;;5037902;28;20041;-74
2023/05/02 08:30:58;;;;;;;7.18;5.85;;;18.20;99.90;;;;;;5054094;28;20029;-73
2023/05/02 08:33:24;;;;;;;7.90;5.20;;;18.30;99.90;;;;;;5070898;28;20033;-74
2023/05/02 08:35:50;;;;;;;9.88;5.78;;;18.30;99.90;;;;;;5070827;28;20412;-75
2023/05/02 08:38:16;;;;;;;6.13;4.90;;;18.30;99.90;;;;;;5055358;28;20029;-74
2023/05/02 08:40:42;;;;;;;9.18;5.68;;;18.20;99.90;;;;;;5055106;28;20029;-75
2023/05/02 08:43:12;;;;;;;12.10;5.85;;;18.40;99.90;;;;;;5055381;28;20032;-75
2023/05/02 08:45:42;;;;;;;6.70;5.55;;;18.60;99.90;;;;;;5053519;28;20036;-76
2023/05/02 08:48:09;;;;;;;9.85;6.53;;;18.80;99.90;;;;;;5053064;28;20033;-74
2023/05/02 08:50:40;;;;;;;12.63;7.20;;;18.80;99.90;;;;;;5055266;28;20485;-75
2023/05/02 08:53:07;;;;;;;13.77;6.80;;;18.50;99.90;;;;;;5070507;28;20081;-75
2023/05/02 08:55:34;;;;;;;9.52;7.53;;;18.60;99.90;;;;;;5070311;28;20489;-74
2023/05/02 08:58:00;;;;;;;10.75;6.93;;;18.80;99.90;;;;;;5054038;28;20036;-76
2023/05/02 09:00:26;;;;;;;10.05;6.28;;;19.00;99.90;;;;;;5053415;28;20021;-74
2023/05/02 09:03:34;;;;;;;13.43;7.57;;;18.80;99.90;;;;;;5070565;28;20032;-74
2023/05/02 09:06:08;;;;;;;6.28;5.50;;;18.90;99.90;;;;;;5045619;28;20033;-75
2023/05/02 09:08:35;;;;;;;8.15;6.10;;;19.20;99.90;;;;;;5070059;28;20474;-74
2023/05/02 09:11:02;;;;;;;9.10;7.10;;;19.50;99.90;;;;;;5053054;28;20033;-74
2023/05/02 09:13:34;;;;;;;7.07;6.18;;;19.40;99.90;;;;;;5054721;28;20036;-75
2023/05/02 09:16:30;;;;;;;6.53;5.72;;;19.50;99.90;;;;;;5069503;28;20033;-75
2023/05/02 09:18:57;;;;;;;5.63;5.13;;;19.70;99.90;;;;;;5041469;28;20044;-75
2023/05/02 09:21:36;;;;;;;6.35;5.15;;;20.00;99.90;;;;;;5036585;28;20044;-74
2023/05/02 09:24:03;;;;;;;6.00;5.60;;;20.30;99.90;;;;;;5054274;28;20025;-74
2023/05/02 09:26:31;;;;;;;5.93;5.43;;;20.70;99.90;;;;;;5053391;28;20025;-74
2023/05/02 09:29:03;;;;;;;6.97;5.18;;;20.10;99.90;;;;;;5052759;28;20040;-75
2023/05/02 09:31:35;;;;;;;6.35;5.25;;;19.90;99.90;;;;;;5068668;28;20047;-74
2023/05/02 09:34:08;;;;;;;5.57;4.82;;;19.90;99.90;;;;;;5036707;28;20053;-75
2023/05/02 09:36:45;;;;;;;6.20;5.05;;;19.90;99.90;;;;;;5052969;28;20025;-75
2023/05/02 09:39:12;;;;;;;7.82;5.15;;;19.80;99.90;;;;;;5052994;28;20500;-75
2023/05/02 09:41:42;;;;;;;5.85;5.25;;;20.00;99.90;;;;;;5053100;28;20040;-75
2023/05/02 09:44:12;;;;;;;8.38;6.15;;;20.20;99.90;;;;;;5052820;28;20036;-75
2023/05/02 09:46:46;;;;;;;7.63;6.05;;;19.90;99.90;;;;;;5069017;28;20509;-74
2023/05/02 09:49:13;;;;;;;7.97;6.38;;;20.10;99.90;;;;;;5035827;28;20041;-75
2023/05/02 09:51:40;;;;;;;6.22;5.75;;;20.10;99.90;;;;;;5053893;28;20032;-74
2023/05/02 09:54:06;;;;;;;6.60;5.80;;;20.00;99.90;;;;;;5069382;28;20052;-76
2023/05/02 09:57:06;;;;;;;8.48;6.05;;;20.10;99.90;;;;;;5069417;28;20052;-75
2023/05/02 09:59:32;;;;;;;6.33;5.70;;;20.10;99.90;;;;;;5031451;28;20033;-74
2023/05/02 10:01:59;;;;;;;7.30;6.68;;;20.20;99.90;;;;;;5069038;28;20029;-74
2023/05/02 10:04:26;;;;;;;7.53;7.00;;;20.50;99.90;;;;;;5035654;28;20029;-76
2023/05/02 10:06:53;;;;;;;7.88;6.28;;;20.60;99.90;;;;;;5068827;28;20029;-74
2023/05/02 10:09:21;;;;;;;8.90;5.88;;;20.20;99.90;;;;;;5052117;28;20036;-75
2023/05/02 10:11:52;;;;;;;7.20;6.50;;;20.10;99.90;;;;;;5052035;28;20508;-74
2023/05/02 10:14:19;;;;;;;;;;;20.20;99.90;;;;;;5052898;28;20048;-75
2023/05/02 10:17:00;;;;;;;8.07;5.53;;;20.20;99.90;;;;;;5068499;28;19909;-74
2023/05/02 10:19:29;;;;;;;6.68;6.07;;;20.40;99.90;;;;;;5051905;28;20044;-74
2023/05/02 10:21:57;;;;;;;7.78;7.03;;;20.60;99.90;;;;;;5068566;28;20025;-76
2023/05/02 10:24:23;;;;;;;7.25;6.65;;;21.00;99.90;;;;;;5052301;28;20025;-74
2023/05/02 10:26:49;;;;;;;7.68;6.97;;;21.30;99.90;;;;;;5068876;28;20036;-75
2023/05/02 10:29:15;;;;;;;7.00;6.30;;;20.90;99.90;;;;;;5052140;28;20025;-75
2023/05/02 10:31:42;;;;;;;6.68;6.07;;;20.70;99.90;;;;;;5050995;28;20047;-74
2023/05/02 10:34:09;;;;;;;7.40;6.80;;;20.70;99.90;;;;;;5051982;28;20029;-76
2023/05/02 10:36:36;;;;;;;7.30;6.60;;;20.70;99.90;;;;;;5051532;28;20029;-74
2023/05/02 10:39:02;;;;;;;7.55;6.85;;;20.70;99.90;;;;;;5052014;28;20039;-75
2023/05/02 10:41:30;;;;;;;7.55;7.13;;;20.90;99.90;;;;;;5052054;28;20032;-74
2023/05/02 10:43:57;;;;;;;7.63;7.03;;;20.90;99.90;;;;;;5051883;28;20020;-75
2023/05/02 10:46:41;;;;;;;6.82;6.22;;;20.90;99.90;;;;;;5067230;28;20036;-74
2023/05/02 10:49:11;;;;;;;7.00;6.30;;;20.90;99.90;;;;;;5067745;28;20056;-75
2023/05/02 10:51:39;;;;;;;7.22;6.63;;;21.20;99.90;;;;;;5068225;28;20048;-76
2023/05/02 10:54:20;;;;;;;7.55;6.95;;;21.10;99.90;;;;;;5051758;28;20040;-74
2023/05/02 10:57:05;;;;;;;10.50;9.52;;;21.30;99.90;;;;;;5067909;28;20029;-74
2023/05/02 10:59:41;;;;;;;9.68;9.07;;;21.70;99.90;;;;;;5052772;28;20033;-75
2023/05/02 11:02:23;;;;;;;8.75;8.07;;;21.90;99.90;;;;;;5050587;28;20371;-76
2023/05/02 11:05:05;;;;;;;8.48;7.88;;;21.50;99.90;;;;;;5052361;28;20055;-75
2023/05/02 11:07:32;;;;;;;9.25;8.45;;;21.30;99.90;;;;;;5067200;28;20036;-75
2023/05/02 11:10:21;;;;;;;8.50;7.80;;;21.10;99.90;;;;;;5034594;28;20040;-74
2023/05/02 11:12:49;;;;;;;7.95;7.35;;;21.20;99.90;;;;;;5039094;28;20036;-75
2023/05/02 11:15:27;;;;;;;8.85;8.05;;;21.30;99.90;;;;;;5067556;28;20033;-75
2023/05/02 11:18:06;;;;;;;8.32;7.72;;;21.50;99.90;;;;;;5066453;28;20389;-75
2023/05/02 11:20:33;;;;;;;8.95;8.35;;;21.50;99.90;;;;;;5052150;28;20029;-76
2023/05/02 11:23:24;;;;;;;9.65;8.75;;;21.60;99.90;;;;;;5052442;28;20033;-74
2023/05/02 11:25:51;;;;;;;;;;;21.70;99.90;;;;;;5067766;28;20040;-74
2023/05/02 11:28:36;;;;;;;8.85;8.35;;;22.00;99.90;;;;;;5067754;28;19905;-75
2023/05/02 11:31:06;;;;;;;8.75;8.15;;;22.00;99.90;;;;;;5051980;28;20041;-75
2023/05/02 11:33:33;;;;;;;8.25;7.65;;;21.80;99.90;;;;;;5050701;28;20040;-75
2023/05/02 11:35:59;;;;;;;9.10;8.50;;;21.80;99.90;;;;;;5067787;28;20037;-73
2023/05/02 11:38:26;;;;;;;9.70;9.10;;;21.90;99.90;;;;;;5050952;28;20060;-75
2023/05/02 11:40:56;;;;;;;8.18;7.68;;;21.90;99.90;;;;;;5051077;28;20462;-73
2023/05/02 11:43:24;;;;;;;9.95;9.25;;;21.70;99.90;;;;;;5050712;28;20064;-75
2023/05/02 11:45:51;;;;;;;9.77;9.18;;;21.70;99.90;;;;;;5054818;28;20508;-75
2023/05/02 11:48:20;;;;;;;9.23;8.52;;;21.80;99.90;;;;;;5054535;28;20036;-74
2023/05/02 11:50:48;;;;;;;9.07;8.48;;;21.80;99.90;;;;;;5055181;28;20036;-75
2023/05/02 11:53:16;;;;;;;9.48;8.80;;;22.00;99.90;;;;;;5055133;28;20028;-74
2023/05/02 11:55:46;;;;;;;9.13;8.63;;;22.10;99.90;;;;;;5054789;28;20045;-74
2023/05/02 11:58:17;;;;;;;8.82;8.02;;;22.20;99.90;;;;;;5071770;28;20036;-74
2023/05/02 12:00:46;;;;;;;8.40;7.85;;;22.20;99.90;;;;;;5071101;28;20037;-74
2023/05/02 12:03:29;;;;;;;10.23;9.63;;;22.10;99.90;;;;;;5070877;28;20025;-75
2023/05/02 12:06:09;;;;;;;7.72;7.28;;;21.80;99.90;;;;;;5071672;28;20025;-75
2023/05/02 12:08:36;;;;;;;8.77;8.18;;;21.80;99.90;;;;;;5056130;28;20017;-74
2023/05/02 12:11:02;;;;;;;9.13;8.52;;;21.90;99.90;;;;;;5054888;28;20477;-74
2023/05/02 12:13:28;;;;;;;9.20;8.60;;;21.90;99.90;;;;;;5071222;28;20033;-75
2023/05/02 12:15:54;;;;;;;9.23;8.52;;;22.10;99.90;;;;;;5070899;28;20033;-75
2023/05/02 12:18:24;;;;;;;8.60;8.00;;;22.30;99.90;;;;;;5054347;28;20482;-75
2023/05/02 12:20:50;;;;;;;10.40;9.70;;;22.20;99.90;;;;;;5054657;28;20040;-75
2023/05/02 12:23:20;;;;;;;8.27;7.68;;;22.40;99.90;;;;;;5071113;28;20017;-74
2023/05/02 12:25:48;;;;;;;9.35;8.75;;;22.60;99.90;;;;;;5052497;28;20694;-74
2023/05/02 12:28:15;;;;;;;8.35;7.82;;;22.90;99.90;;;;;;5068604;28;20508;-76
2023/05/02 12:30:41;;;;;;;9.25;8.75;;;22.80;99.90;;;;;;5070317;28;20401;-75
2023/05/02 12:33:08;;;;;;;9.40;8.80;;;22.70;99.90;;;;;;5053978;28;20028;-76
2023/05/02 12:35:34;;;;;;;9.90;9.10;;;22.60;99.90;;;;;;5055450;28;20404;-75
2023/05/02 12:38:11;;;;;;;9.45;8.85;;;22.30;99.90;;;;;;5054273;28;20155;-74
2023/05/02 12:40:38;;;;;;;9.13;8.43;;;22.20;99.90;;;;;;5054300;28;20025;-74
2023/05/02 12:43:06;;;;;;;9.65;8.95;;;22.10;99.90;;;;;;5054287;28;20021;-73
2023/05/02 12:45:33;;;;;;;9.70;9.00;;;22.00;99.90;;;;;;5036365;28;20036;-74
2023/05/02 12:48:17;;;;;;;10.35;9.55;;;22.30;99.90;;;;;;5054055;28;20363;-74
2023/05/02 12:50:43;;;;;;;8.73;8.25;;;22.40;99.90;;;;;;5055275;28;20021;-74